KHOU/HOU METAR and TAF weather

Enter ICAO airport designator
Station Type Date Time Source
KHOU METAR 2020/07/11 22:53 UTC NOAA

KHOU 112253Z 18003KT 10SM FEW050 SCT150 SCT250 36/21 A2995 RMK AO2 SLP144 T03610206


Station Type Date Time Source
KHOU Decoded METAR 2020/07/11 22:53 UTC NOAA

HOUSTON HOBBY AIRPORT, TX, United States (KHOU) 29-38N 095-17W 36M
Jul 11, 2020 - 06:53 PM EDT / 2020.07.11 2253 UTC
Wind: from the S (180 degrees) at 3 MPH (3 KT):0
Visibility: 10 mile(s):0
Sky conditions: partly cloudy
Temperature: 97.0 F (36.1 C)
Heat index: 102.9 F (39.4 C):1
Dew Point: 69.1 F (20.6 C)
Relative Humidity: 40%
Pressure (altimeter): 29.95 in. Hg (1014 hPa)
ob: KHOU 112253Z 18003KT 10SM FEW050 SCT150 SCT250 36/21 A2995 RMK AO2 SLP144 T03610206
cycle: 23

Station Type Date Time Source
KHOU TAF 2020/07/11 21:58 UTC NOAA

TAF
AMD KHOU 112055Z 1121/1218 17007KT P6SM FEW050 FEW250
FM120600 VRB04KT P6SM SCT030
FM121500 23007KT P6SM FEW030 FEW250

Example: see airport list